sensor_id;sensor_type;location;lat;lon;timestamp;P1;durP1;ratioP1;P2;durP2;ratioP2
12892;SDS011;6514;48.606;9.222;2023-02-26T00:00:00;3.13;;;1.70;;
12892;SDS011;6514;48.606;9.222;2023-02-26T00:02:33;3.57;;;1.37;;
12892;SDS011;6514;48.606;9.222;2023-02-26T00:05:00;3.37;;;1.60;;
12892;SDS011;6514;48.606;9.222;2023-02-26T00:07:27;2.80;;;1.63;;
12892;SDS011;6514;48.606;9.222;2023-02-26T00:09:54;2.10;;;1.47;;
12892;SDS011;6514;48.606;9.222;2023-02-26T00:12:21;2.13;;;1.57;;
12892;SDS011;6514;48.606;9.222;2023-02-26T00:14:49;2.80;;;1.77;;
12892;SDS011;6514;48.606;9.222;2023-02-26T00:17:31;3.27;;;1.83;;
12892;SDS011;6514;48.606;9.222;2023-02-26T00:20:07;2.47;;;1.63;;
12892;SDS011;6514;48.606;9.222;2023-02-26T00:22:36;4.80;;;2.10;;
12892;SDS011;6514;48.606;9.222;2023-02-26T00:25:04;3.57;;;1.80;;
12892;SDS011;6514;48.606;9.222;2023-02-26T00:27:31;2.97;;;1.57;;
12892;SDS011;6514;48.606;9.222;2023-02-26T00:29:58;3.37;;;2.00;;
12892;SDS011;6514;48.606;9.222;2023-02-26T00:32:25;3.50;;;2.00;;
12892;SDS011;6514;48.606;9.222;2023-02-26T00:34:55;2.83;;;1.87;;
12892;SDS011;6514;48.606;9.222;2023-02-26T00:37:26;3.37;;;1.80;;
12892;SDS011;6514;48.606;9.222;2023-02-26T00:40:02;3.13;;;2.00;;
12892;SDS011;6514;48.606;9.222;2023-02-26T00:42:40;3.83;;;2.00;;
12892;SDS011;6514;48.606;9.222;2023-02-26T00:45:08;3.80;;;2.00;;
12892;SDS011;6514;48.606;9.222;2023-02-26T00:47:38;4.67;;;2.10;;
12892;SDS011;6514;48.606;9.222;2023-02-26T00:50:13;4.50;;;2.30;;
12892;SDS011;6514;48.606;9.222;2023-02-26T00:52:45;1.97;;;1.73;;
12892;SDS011;6514;48.606;9.222;2023-02-26T00:55:21;2.23;;;1.80;;
12892;SDS011;6514;48.606;9.222;2023-02-26T00:57:48;3.47;;;1.90;;
12892;SDS011;6514;48.606;9.222;2023-02-26T01:00:15;1.77;;;1.60;;
12892;SDS011;6514;48.606;9.222;2023-02-26T01:02:43;2.27;;;1.70;;
12892;SDS011;6514;48.606;9.222;2023-02-26T01:05:11;3.43;;;2.07;;
12892;SDS011;6514;48.606;9.222;2023-02-26T01:07:41;3.90;;;1.70;;
12892;SDS011;6514;48.606;9.222;2023-02-26T01:10:12;3.03;;;2.10;;
12892;SDS011;6514;48.606;9.222;2023-02-26T01:12:40;3.40;;;2.07;;
12892;SDS011;6514;48.606;9.222;2023-02-26T01:15:07;2.67;;;1.90;;
12892;SDS011;6514;48.606;9.222;2023-02-26T01:17:36;3.20;;;1.90;;
12892;SDS011;6514;48.606;9.222;2023-02-26T01:20:08;3.70;;;1.97;;
12892;SDS011;6514;48.606;9.222;2023-02-26T01:22:43;3.07;;;1.80;;
12892;SDS011;6514;48.606;9.222;2023-02-26T01:25:17;2.13;;;1.70;;
12892;SDS011;6514;48.606;9.222;2023-02-26T01:27:49;4.00;;;2.40;;
12892;SDS011;6514;48.606;9.222;2023-02-26T01:30:16;3.73;;;1.90;;
12892;SDS011;6514;48.606;9.222;2023-02-26T01:32:45;3.20;;;2.40;;
12892;SDS011;6514;48.606;9.222;2023-02-26T01:35:23;2.40;;;2.20;;
12892;SDS011;6514;48.606;9.222;2023-02-26T01:38:00;4.57;;;2.43;;
12892;SDS011;6514;48.606;9.222;2023-02-26T01:43:30;4.40;;;2.10;;
12892;SDS011;6514;48.606;9.222;2023-02-26T01:46:03;2.60;;;2.00;;
12892;SDS011;6514;48.606;9.222;2023-02-26T01:48:42;5.43;;;2.20;;
12892;SDS011;6514;48.606;9.222;2023-02-26T01:51:15;2.90;;;2.33;;
12892;SDS011;6514;48.606;9.222;2023-02-26T01:53:42;3.73;;;2.40;;
12892;SDS011;6514;48.606;9.222;2023-02-26T01:56:10;4.23;;;2.03;;
12892;SDS011;6514;48.606;9.222;2023-02-26T01:58:43;4.77;;;2.13;;
12892;SDS011;6514;48.606;9.222;2023-02-26T02:01:11;3.17;;;2.10;;
12892;SDS011;6514;48.606;9.222;2023-02-26T02:03:39;5.53;;;2.27;;
12892;SDS011;6514;48.606;9.222;2023-02-26T02:06:08;3.93;;;2.47;;
12892;SDS011;6514;48.606;9.222;2023-02-26T02:08:42;3.83;;;2.47;;
12892;SDS011;6514;48.606;9.222;2023-02-26T02:11:10;4.10;;;2.13;;
12892;SDS011;6514;48.606;9.222;2023-02-26T02:13:40;2.40;;;2.20;;
12892;SDS011;6514;48.606;9.222;2023-02-26T02:16:35;4.03;;;2.70;;
12892;SDS011;6514;48.606;9.222;2023-02-26T02:19:09;3.20;;;2.03;;
12892;SDS011;6514;48.606;9.222;2023-02-26T02:22:00;7.83;;;2.50;;
12892;SDS011;6514;48.606;9.222;2023-02-26T02:24:49;3.67;;;2.03;;
12892;SDS011;6514;48.606;9.222;2023-02-26T02:27:32;3.50;;;2.17;;
12892;SDS011;6514;48.606;9.222;2023-02-26T02:30:09;3.50;;;2.60;;
12892;SDS011;6514;48.606;9.222;2023-02-26T02:32:52;3.30;;;2.27;;
12892;SDS011;6514;48.606;9.222;2023-02-26T02:35:25;3.90;;;2.20;;
12892;SDS011;6514;48.606;9.222;2023-02-26T02:37:57;3.87;;;2.40;;
12892;SDS011;6514;48.606;9.222;2023-02-26T02:40:30;4.07;;;2.27;;
12892;SDS011;6514;48.606;9.222;2023-02-26T02:43:00;3.40;;;2.37;;
12892;SDS011;6514;48.606;9.222;2023-02-26T02:45:30;3.80;;;2.40;;
12892;SDS011;6514;48.606;9.222;2023-02-26T02:48:03;4.43;;;2.30;;
12892;SDS011;6514;48.606;9.222;2023-02-26T02:50:36;3.77;;;2.90;;
12892;SDS011;6514;48.606;9.222;2023-02-26T02:53:08;3.23;;;2.37;;
12892;SDS011;6514;48.606;9.222;2023-02-26T02:55:42;3.40;;;2.20;;
12892;SDS011;6514;48.606;9.222;2023-02-26T02:58:13;5.53;;;2.60;;
12892;SDS011;6514;48.606;9.222;2023-02-26T03:00:44;4.10;;;2.00;;
12892;SDS011;6514;48.606;9.222;2023-02-26T03:03:16;4.63;;;2.33;;
12892;SDS011;6514;48.606;9.222;2023-02-26T03:05:49;3.70;;;2.43;;
12892;SDS011;6514;48.606;9.222;2023-02-26T03:08:17;3.10;;;1.90;;
12892;SDS011;6514;48.606;9.222;2023-02-26T03:10:47;3.27;;;2.17;;
12892;SDS011;6514;48.606;9.222;2023-02-26T03:13:15;2.60;;;2.07;;
12892;SDS011;6514;48.606;9.222;2023-02-26T03:15:45;4.13;;;2.00;;
12892;SDS011;6514;48.606;9.222;2023-02-26T03:18:26;3.80;;;2.53;;
12892;SDS011;6514;48.606;9.222;2023-02-26T03:21:05;3.93;;;2.10;;
12892;SDS011;6514;48.606;9.222;2023-02-26T03:23:39;2.93;;;2.20;;
12892;SDS011;6514;48.606;9.222;2023-02-26T03:26:12;2.70;;;2.13;;
12892;SDS011;6514;48.606;9.222;2023-02-26T03:28:45;5.87;;;2.70;;
12892;SDS011;6514;48.606;9.222;2023-02-26T03:31:18;3.00;;;2.00;;
12892;SDS011;6514;48.606;9.222;2023-02-26T03:33:53;5.13;;;2.00;;
12892;SDS011;6514;48.606;9.222;2023-02-26T03:36:25;4.33;;;1.90;;
12892;SDS011;6514;48.606;9.222;2023-02-26T03:38:57;5.93;;;2.30;;
12892;SDS011;6514;48.606;9.222;2023-02-26T03:41:28;4.63;;;2.47;;
12892;SDS011;6514;48.606;9.222;2023-02-26T03:43:59;3.97;;;1.87;;
12892;SDS011;6514;48.606;9.222;2023-02-26T03:46:32;4.40;;;2.20;;
12892;SDS011;6514;48.606;9.222;2023-02-26T03:49:03;4.03;;;2.30;;
12892;SDS011;6514;48.606;9.222;2023-02-26T03:51:34;4.03;;;2.10;;
12892;SDS011;6514;48.606;9.222;2023-02-26T03:54:04;4.10;;;1.80;;
12892;SDS011;6514;48.606;9.222;2023-02-26T03:56:38;2.90;;;2.20;;
12892;SDS011;6514;48.606;9.222;2023-02-26T03:59:07;3.50;;;2.37;;
12892;SDS011;6514;48.606;9.222;2023-02-26T04:01:35;6.30;;;2.10;;
12892;SDS011;6514;48.606;9.222;2023-02-26T04:04:11;3.47;;;2.30;;
12892;SDS011;6514;48.606;9.222;2023-02-26T04:06:41;3.97;;;2.50;;
12892;SDS011;6514;48.606;9.222;2023-02-26T04:09:09;4.20;;;2.10;;
12892;SDS011;6514;48.606;9.222;2023-02-26T04:11:37;6.90;;;2.47;;
12892;SDS011;6514;48.606;9.222;2023-02-26T04:14:04;5.77;;;2.50;;
12892;SDS011;6514;48.606;9.222;2023-02-26T04:16:31;3.73;;;2.30;;
12892;SDS011;6514;48.606;9.222;2023-02-26T04:18:58;4.97;;;2.47;;
12892;SDS011;6514;48.606;9.222;2023-02-26T04:21:26;4.93;;;2.23;;
12892;SDS011;6514;48.606;9.222;2023-02-26T04:23:53;5.33;;;2.30;;
12892;SDS011;6514;48.606;9.222;2023-02-26T04:26:20;3.57;;;2.07;;
12892;SDS011;6514;48.606;9.222;2023-02-26T04:28:47;5.30;;;2.00;;
12892;SDS011;6514;48.606;9.222;2023-02-26T04:31:14;3.80;;;1.97;;
12892;SDS011;6514;48.606;9.222;2023-02-26T04:33:40;4.53;;;2.20;;
12892;SDS011;6514;48.606;9.222;2023-02-26T04:36:07;3.97;;;2.40;;
12892;SDS011;6514;48.606;9.222;2023-02-26T04:38:36;4.07;;;2.17;;
12892;SDS011;6514;48.606;9.222;2023-02-26T04:41:04;2.50;;;2.10;;
12892;SDS011;6514;48.606;9.222;2023-02-26T04:43:31;4.03;;;2.30;;
12892;SDS011;6514;48.606;9.222;2023-02-26T04:45:58;2.83;;;2.30;;
12892;SDS011;6514;48.606;9.222;2023-02-26T04:48:25;5.67;;;2.40;;
12892;SDS011;6514;48.606;9.222;2023-02-26T04:50:52;2.90;;;2.27;;
12892;SDS011;6514;48.606;9.222;2023-02-26T04:53:19;3.53;;;1.93;;
12892;SDS011;6514;48.606;9.222;2023-02-26T04:55:48;5.17;;;2.10;;
12892;SDS011;6514;48.606;9.222;2023-02-26T04:58:15;4.73;;;2.10;;
12892;SDS011;6514;48.606;9.222;2023-02-26T05:00:42;6.33;;;2.40;;
12892;SDS011;6514;48.606;9.222;2023-02-26T05:03:12;2.63;;;1.80;;
12892;SDS011;6514;48.606;9.222;2023-02-26T05:05:40;2.63;;;1.80;;
12892;SDS011;6514;48.606;9.222;2023-02-26T05:08:07;5.30;;;2.53;;
12892;SDS011;6514;48.606;9.222;2023-02-26T05:10:34;2.93;;;2.00;;
12892;SDS011;6514;48.606;9.222;2023-02-26T05:13:02;2.90;;;1.97;;
12892;SDS011;6514;48.606;9.222;2023-02-26T05:15:29;3.87;;;2.47;;
12892;SDS011;6514;48.606;9.222;2023-02-26T05:17:56;5.77;;;2.27;;
12892;SDS011;6514;48.606;9.222;2023-02-26T05:20:23;5.10;;;2.13;;
12892;SDS011;6514;48.606;9.222;2023-02-26T05:22:50;4.33;;;2.30;;
12892;SDS011;6514;48.606;9.222;2023-02-26T05:25:17;3.40;;;2.27;;
12892;SDS011;6514;48.606;9.222;2023-02-26T05:27:44;4.73;;;2.40;;
12892;SDS011;6514;48.606;9.222;2023-02-26T05:30:13;5.73;;;2.93;;
12892;SDS011;6514;48.606;9.222;2023-02-26T05:32:41;3.07;;;1.67;;
12892;SDS011;6514;48.606;9.222;2023-02-26T05:35:08;5.47;;;2.20;;
12892;SDS011;6514;48.606;9.222;2023-02-26T05:37:36;3.67;;;2.00;;
12892;SDS011;6514;48.606;9.222;2023-02-26T05:40:04;5.93;;;2.27;;
12892;SDS011;6514;48.606;9.222;2023-02-26T05:42:34;3.30;;;2.13;;
12892;SDS011;6514;48.606;9.222;2023-02-26T05:45:01;2.63;;;1.60;;
12892;SDS011;6514;48.606;9.222;2023-02-26T05:47:31;8.60;;;2.23;;
12892;SDS011;6514;48.606;9.222;2023-02-26T05:49:59;4.93;;;2.17;;
12892;SDS011;6514;48.606;9.222;2023-02-26T05:52:25;4.63;;;2.50;;
12892;SDS011;6514;48.606;9.222;2023-02-26T05:54:52;3.13;;;1.93;;
12892;SDS011;6514;48.606;9.222;2023-02-26T05:57:20;3.47;;;2.13;;
12892;SDS011;6514;48.606;9.222;2023-02-26T05:59:47;4.73;;;2.03;;
12892;SDS011;6514;48.606;9.222;2023-02-26T06:02:14;7.37;;;2.30;;
12892;SDS011;6514;48.606;9.222;2023-02-26T06:04:43;3.47;;;2.03;;
12892;SDS011;6514;48.606;9.222;2023-02-26T06:07:10;4.57;;;2.20;;
12892;SDS011;6514;48.606;9.222;2023-02-26T06:09:37;3.13;;;2.33;;
12892;SDS011;6514;48.606;9.222;2023-02-26T06:12:03;3.53;;;2.70;;
12892;SDS011;6514;48.606;9.222;2023-02-26T06:14:31;3.13;;;2.27;;
12892;SDS011;6514;48.606;9.222;2023-02-26T06:16:58;4.40;;;2.10;;
12892;SDS011;6514;48.606;9.222;2023-02-26T06:19:25;3.47;;;2.60;;
12892;SDS011;6514;48.606;9.222;2023-02-26T06:21:53;5.00;;;2.57;;
12892;SDS011;6514;48.606;9.222;2023-02-26T06:24:20;4.23;;;2.30;;
12892;SDS011;6514;48.606;9.222;2023-02-26T06:26:47;3.93;;;2.37;;
12892;SDS011;6514;48.606;9.222;2023-02-26T06:29:14;6.13;;;2.60;;
12892;SDS011;6514;48.606;9.222;2023-02-26T06:31:42;5.87;;;2.80;;
12892;SDS011;6514;48.606;9.222;2023-02-26T06:34:09;4.57;;;2.43;;
12892;SDS011;6514;48.606;9.222;2023-02-26T06:36:36;3.63;;;2.40;;
12892;SDS011;6514;48.606;9.222;2023-02-26T06:39:04;4.70;;;2.87;;
12892;SDS011;6514;48.606;9.222;2023-02-26T06:41:32;5.87;;;2.77;;
12892;SDS011;6514;48.606;9.222;2023-02-26T06:43:59;4.57;;;2.60;;
12892;SDS011;6514;48.606;9.222;2023-02-26T06:46:26;4.03;;;2.63;;
12892;SDS011;6514;48.606;9.222;2023-02-26T06:48:53;2.87;;;2.27;;
12892;SDS011;6514;48.606;9.222;2023-02-26T06:51:19;7.07;;;2.73;;
12892;SDS011;6514;48.606;9.222;2023-02-26T06:53:49;4.90;;;2.83;;
12892;SDS011;6514;48.606;9.222;2023-02-26T06:56:17;5.33;;;2.30;;
12892;SDS011;6514;48.606;9.222;2023-02-26T06:58:44;3.23;;;2.50;;
12892;SDS011;6514;48.606;9.222;2023-02-26T07:01:11;4.13;;;2.53;;
12892;SDS011;6514;48.606;9.222;2023-02-26T07:03:38;3.90;;;2.60;;
12892;SDS011;6514;48.606;9.222;2023-02-26T07:06:05;5.80;;;2.23;;
12892;SDS011;6514;48.606;9.222;2023-02-26T07:08:33;3.77;;;2.60;;
12892;SDS011;6514;48.606;9.222;2023-02-26T07:11:00;3.77;;;2.60;;
12892;SDS011;6514;48.606;9.222;2023-02-26T07:13:29;5.60;;;2.40;;
12892;SDS011;6514;48.606;9.222;2023-02-26T07:15:56;4.17;;;2.40;;
12892;SDS011;6514;48.606;9.222;2023-02-26T07:18:23;3.97;;;2.30;;
12892;SDS011;6514;48.606;9.222;2023-02-26T07:20:50;6.17;;;2.40;;
12892;SDS011;6514;48.606;9.222;2023-02-26T07:23:17;4.27;;;2.50;;
12892;SDS011;6514;48.606;9.222;2023-02-26T07:25:43;2.83;;;2.20;;
12892;SDS011;6514;48.606;9.222;2023-02-26T07:28:10;6.93;;;2.67;;
12892;SDS011;6514;48.606;9.222;2023-02-26T07:30:38;3.30;;;1.97;;
12892;SDS011;6514;48.606;9.222;2023-02-26T07:33:06;5.23;;;2.37;;
12892;SDS011;6514;48.606;9.222;2023-02-26T07:35:33;3.07;;;2.00;;
12892;SDS011;6514;48.606;9.222;2023-02-26T07:38:00;2.60;;;2.17;;
12892;SDS011;6514;48.606;9.222;2023-02-26T07:40:27;3.30;;;1.80;;
12892;SDS011;6514;48.606;9.222;2023-02-26T07:42:54;2.87;;;1.90;;
12892;SDS011;6514;48.606;9.222;2023-02-26T07:45:21;3.43;;;1.90;;
12892;SDS011;6514;48.606;9.222;2023-02-26T07:47:49;3.67;;;1.80;;
12892;SDS011;6514;48.606;9.222;2023-02-26T07:50:17;5.17;;;1.87;;
12892;SDS011;6514;48.606;9.222;2023-02-26T07:52:45;1.97;;;1.53;;
12892;SDS011;6514;48.606;9.222;2023-02-26T07:55:12;1.80;;;1.50;;
12892;SDS011;6514;48.606;9.222;2023-02-26T07:57:38;3.57;;;2.37;;
12892;SDS011;6514;48.606;9.222;2023-02-26T08:00:06;3.40;;;1.50;;
12892;SDS011;6514;48.606;9.222;2023-02-26T08:02:34;3.27;;;1.47;;
12892;SDS011;6514;48.606;9.222;2023-02-26T08:05:02;3.43;;;1.60;;
12892;SDS011;6514;48.606;9.222;2023-02-26T08:07:29;4.03;;;1.60;;
12892;SDS011;6514;48.606;9.222;2023-02-26T08:09:56;3.73;;;1.80;;
12892;SDS011;6514;48.606;9.222;2023-02-26T08:12:23;4.03;;;2.20;;
12892;SDS011;6514;48.606;9.222;2023-02-26T08:14:50;3.10;;;1.80;;
12892;SDS011;6514;48.606;9.222;2023-02-26T08:17:17;5.10;;;2.40;;
12892;SDS011;6514;48.606;9.222;2023-02-26T08:19:44;5.17;;;1.97;;
12892;SDS011;6514;48.606;9.222;2023-02-26T08:22:12;8.03;;;2.40;;
12892;SDS011;6514;48.606;9.222;2023-02-26T08:24:39;3.93;;;1.97;;
12892;SDS011;6514;48.606;9.222;2023-02-26T08:27:06;3.60;;;1.90;;
12892;SDS011;6514;48.606;9.222;2023-02-26T08:29:33;3.47;;;1.90;;
12892;SDS011;6514;48.606;9.222;2023-02-26T08:31:59;5.10;;;1.90;;
12892;SDS011;6514;48.606;9.222;2023-02-26T08:34:26;4.27;;;1.87;;
12892;SDS011;6514;48.606;9.222;2023-02-26T08:36:54;3.40;;;1.77;;
12892;SDS011;6514;48.606;9.222;2023-02-26T08:39:22;5.00;;;2.27;;
12892;SDS011;6514;48.606;9.222;2023-02-26T08:41:49;2.77;;;1.70;;
12892;SDS011;6514;48.606;9.222;2023-02-26T08:44:15;3.23;;;2.10;;
12892;SDS011;6514;48.606;9.222;2023-02-26T08:46:42;3.97;;;2.23;;
12892;SDS011;6514;48.606;9.222;2023-02-26T08:49:09;3.63;;;1.87;;
12892;SDS011;6514;48.606;9.222;2023-02-26T08:51:36;3.57;;;1.80;;
12892;SDS011;6514;48.606;9.222;2023-02-26T08:54:03;5.27;;;1.93;;
12892;SDS011;6514;48.606;9.222;2023-02-26T08:56:31;3.67;;;1.90;;
12892;SDS011;6514;48.606;9.222;2023-02-26T08:58:58;4.63;;;2.47;;
12892;SDS011;6514;48.606;9.222;2023-02-26T09:01:25;3.73;;;1.90;;
12892;SDS011;6514;48.606;9.222;2023-02-26T09:03:52;2.43;;;1.80;;
12892;SDS011;6514;48.606;9.222;2023-02-26T09:06:18;3.97;;;1.77;;
12892;SDS011;6514;48.606;9.222;2023-02-26T09:08:45;3.83;;;1.77;;
12892;SDS011;6514;48.606;9.222;2023-02-26T09:11:13;3.20;;;1.60;;
12892;SDS011;6514;48.606;9.222;2023-02-26T09:13:42;4.03;;;1.77;;
12892;SDS011;6514;48.606;9.222;2023-02-26T09:16:09;6.90;;;2.43;;
12892;SDS011;6514;48.606;9.222;2023-02-26T09:18:36;4.43;;;1.80;;
12892;SDS011;6514;48.606;9.222;2023-02-26T09:21:03;2.87;;;1.83;;
12892;SDS011;6514;48.606;9.222;2023-02-26T09:23:30;2.50;;;1.80;;
12892;SDS011;6514;48.606;9.222;2023-02-26T09:25:57;3.90;;;1.60;;
12892;SDS011;6514;48.606;9.222;2023-02-26T09:28:24;5.83;;;2.40;;
12892;SDS011;6514;48.606;9.222;2023-02-26T09:30:52;3.33;;;1.87;;
12892;SDS011;6514;48.606;9.222;2023-02-26T09:33:20;3.60;;;2.00;;
12892;SDS011;6514;48.606;9.222;2023-02-26T09:35:47;2.87;;;1.63;;
12892;SDS011;6514;48.606;9.222;2023-02-26T09:38:14;4.07;;;1.77;;
12892;SDS011;6514;48.606;9.222;2023-02-26T09:40:43;3.53;;;2.10;;
12892;SDS011;6514;48.606;9.222;2023-02-26T09:43:18;2.03;;;1.67;;
12892;SDS011;6514;48.606;9.222;2023-02-26T09:46:03;4.73;;;2.03;;
12892;SDS011;6514;48.606;9.222;2023-02-26T09:48:35;2.60;;;1.67;;
12892;SDS011;6514;48.606;9.222;2023-02-26T09:51:06;2.20;;;1.70;;
12892;SDS011;6514;48.606;9.222;2023-02-26T09:53:38;4.73;;;2.27;;
12892;SDS011;6514;48.606;9.222;2023-02-26T09:56:07;2.20;;;1.70;;
12892;SDS011;6514;48.606;9.222;2023-02-26T09:58:39;4.23;;;1.80;;
12892;SDS011;6514;48.606;9.222;2023-02-26T10:01:11;1.97;;;1.50;;
12892;SDS011;6514;48.606;9.222;2023-02-26T10:03:47;2.03;;;1.80;;
12892;SDS011;6514;48.606;9.222;2023-02-26T10:06:22;3.83;;;1.80;;
12892;SDS011;6514;48.606;9.222;2023-02-26T10:09:04;3.30;;;1.70;;
12892;SDS011;6514;48.606;9.222;2023-02-26T10:11:46;3.97;;;1.83;;
12892;SDS011;6514;48.606;9.222;2023-02-26T10:14:22;4.70;;;1.47;;
12892;SDS011;6514;48.606;9.222;2023-02-26T10:16:57;2.53;;;1.43;;
12892;SDS011;6514;48.606;9.222;2023-02-26T10:19:28;2.50;;;1.73;;
12892;SDS011;6514;48.606;9.222;2023-02-26T10:21:59;2.47;;;1.70;;
12892;SDS011;6514;48.606;9.222;2023-02-26T10:24:41;3.10;;;1.50;;
12892;SDS011;6514;48.606;9.222;2023-02-26T10:27:13;3.57;;;1.77;;
12892;SDS011;6514;48.606;9.222;2023-02-26T10:29:42;1.80;;;1.50;;
12892;SDS011;6514;48.606;9.222;2023-02-26T10:32:16;2.27;;;1.50;;
12892;SDS011;6514;48.606;9.222;2023-02-26T10:34:50;2.33;;;1.67;;
12892;SDS011;6514;48.606;9.222;2023-02-26T10:37:22;2.93;;;1.70;;
12892;SDS011;6514;48.606;9.222;2023-02-26T10:39:55;3.17;;;1.60;;
12892;SDS011;6514;48.606;9.222;2023-02-26T10:42:26;3.43;;;1.37;;
12892;SDS011;6514;48.606;9.222;2023-02-26T10:45:01;2.20;;;1.53;;
12892;SDS011;6514;48.606;9.222;2023-02-26T10:47:42;3.63;;;1.70;;
12892;SDS011;6514;48.606;9.222;2023-02-26T10:50:15;2.70;;;1.50;;
12892;SDS011;6514;48.606;9.222;2023-02-26T10:52:45;1.43;;;1.30;;
12892;SDS011;6514;48.606;9.222;2023-02-26T10:58:03;1.80;;;1.23;;
12892;SDS011;6514;48.606;9.222;2023-02-26T11:00:31;1.60;;;1.40;;
12892;SDS011;6514;48.606;9.222;2023-02-26T11:03:02;1.90;;;1.23;;
12892;SDS011;6514;48.606;9.222;2023-02-26T11:05:31;2.93;;;1.40;;
12892;SDS011;6514;48.606;9.222;2023-02-26T11:08:00;1.77;;;1.30;;
12892;SDS011;6514;48.606;9.222;2023-02-26T11:10:38;1.53;;;1.40;;
12892;SDS011;6514;48.606;9.222;2023-02-26T11:13:07;1.73;;;1.50;;
12892;SDS011;6514;48.606;9.222;2023-02-26T11:15:34;2.90;;;1.40;;
12892;SDS011;6514;48.606;9.222;2023-02-26T11:18:03;2.00;;;1.50;;
12892;SDS011;6514;48.606;9.222;2023-02-26T11:20:33;1.50;;;1.40;;
12892;SDS011;6514;48.606;9.222;2023-02-26T11:23:03;1.37;;;1.10;;
12892;SDS011;6514;48.606;9.222;2023-02-26T11:25:32;1.83;;;1.30;;
12892;SDS011;6514;48.606;9.222;2023-02-26T11:28:02;4.77;;;1.40;;
12892;SDS011;6514;48.606;9.222;2023-02-26T11:30:30;3.03;;;1.30;;
12892;SDS011;6514;48.606;9.222;2023-02-26T11:33:12;1.77;;;1.40;;
12892;SDS011;6514;48.606;9.222;2023-02-26T11:35:42;2.23;;;1.50;;
12892;SDS011;6514;48.606;9.222;2023-02-26T11:38:14;2.47;;;1.37;;
12892;SDS011;6514;48.606;9.222;2023-02-26T11:40:48;3.17;;;1.57;;
12892;SDS011;6514;48.606;9.222;2023-02-26T11:43:19;3.20;;;1.73;;
12892;SDS011;6514;48.606;9.222;2023-02-26T11:45:51;2.73;;;1.63;;
12892;SDS011;6514;48.606;9.222;2023-02-26T11:48:23;2.40;;;1.83;;
12892;SDS011;6514;48.606;9.222;2023-02-26T11:50:54;1.47;;;1.20;;
12892;SDS011;6514;48.606;9.222;2023-02-26T11:53:25;2.17;;;1.50;;
12892;SDS011;6514;48.606;9.222;2023-02-26T11:55:58;1.73;;;1.30;;
12892;SDS011;6514;48.606;9.222;2023-02-26T11:58:27;1.30;;;1.20;;
12892;SDS011;6514;48.606;9.222;2023-02-26T12:00:57;1.70;;;1.27;;
12892;SDS011;6514;48.606;9.222;2023-02-26T12:03:27;1.93;;;1.67;;
12892;SDS011;6514;48.606;9.222;2023-02-26T12:05:57;2.73;;;1.47;;
12892;SDS011;6514;48.606;9.222;2023-02-26T12:08:27;2.00;;;1.57;;
12892;SDS011;6514;48.606;9.222;2023-02-26T12:11:12;1.30;;;1.20;;
12892;SDS011;6514;48.606;9.222;2023-02-26T12:13:58;2.47;;;1.90;;
12892;SDS011;6514;48.606;9.222;2023-02-26T12:16:33;1.60;;;1.37;;
12892;SDS011;6514;48.606;9.222;2023-02-26T12:19:09;1.80;;;1.70;;
12892;SDS011;6514;48.606;9.222;2023-02-26T12:21:52;2.33;;;1.20;;
12892;SDS011;6514;48.606;9.222;2023-02-26T12:24:42;1.23;;;1.13;;
12892;SDS011;6514;48.606;9.222;2023-02-26T12:27:36;1.27;;;1.10;;
12892;SDS011;6514;48.606;9.222;2023-02-26T12:30:21;1.50;;;1.40;;
12892;SDS011;6514;48.606;9.222;2023-02-26T12:33:02;2.70;;;1.07;;
12892;SDS011;6514;48.606;9.222;2023-02-26T12:35:49;1.40;;;1.30;;
12892;SDS011;6514;48.606;9.222;2023-02-26T12:38:28;1.30;;;1.20;;
12892;SDS011;6514;48.606;9.222;2023-02-26T12:43:57;1.57;;;0.90;;
12892;SDS011;6514;48.606;9.222;2023-02-26T12:46:34;1.40;;;1.30;;
12892;SDS011;6514;48.606;9.222;2023-02-26T12:55:13;1.67;;;1.30;;
12892;SDS011;6514;48.606;9.222;2023-02-26T12:58:09;2.00;;;1.80;;
12892;SDS011;6514;48.606;9.222;2023-02-26T13:00:53;1.30;;;1.20;;
12892;SDS011;6514;48.606;9.222;2023-02-26T13:09:47;2.17;;;1.70;;
12892;SDS011;6514;48.606;9.222;2023-02-26T13:12:33;2.13;;;1.20;;
12892;SDS011;6514;48.606;9.222;2023-02-26T13:15:14;1.07;;;1.00;;
12892;SDS011;6514;48.606;9.222;2023-02-26T13:18:03;1.50;;;1.20;;
12892;SDS011;6514;48.606;9.222;2023-02-26T13:20:35;1.30;;;1.20;;
12892;SDS011;6514;48.606;9.222;2023-02-26T13:23:07;1.10;;;1.07;;
12892;SDS011;6514;48.606;9.222;2023-02-26T13:25:40;1.73;;;0.80;;
12892;SDS011;6514;48.606;9.222;2023-02-26T13:28:18;1.17;;;1.10;;
12892;SDS011;6514;48.606;9.222;2023-02-26T13:30:50;1.57;;;1.10;;
12892;SDS011;6514;48.606;9.222;2023-02-26T13:33:22;1.63;;;1.13;;
12892;SDS011;6514;48.606;9.222;2023-02-26T13:35:53;1.23;;;1.13;;
12892;SDS011;6514;48.606;9.222;2023-02-26T13:38:23;1.50;;;1.23;;
12892;SDS011;6514;48.606;9.222;2023-02-26T13:41:02;1.20;;;1.07;;
12892;SDS011;6514;48.606;9.222;2023-02-26T13:43:38;2.00;;;1.13;;
12892;SDS011;6514;48.606;9.222;2023-02-26T13:46:21;1.10;;;1.00;;
12892;SDS011;6514;48.606;9.222;2023-02-26T13:49:03;1.20;;;0.97;;
12892;SDS011;6514;48.606;9.222;2023-02-26T13:51:37;1.40;;;1.20;;
12892;SDS011;6514;48.606;9.222;2023-02-26T13:54:07;1.50;;;1.20;;
12892;SDS011;6514;48.606;9.222;2023-02-26T13:57:04;0.97;;;0.90;;
12892;SDS011;6514;48.606;9.222;2023-02-26T13:59:45;1.10;;;1.10;;
12892;SDS011;6514;48.606;9.222;2023-02-26T14:02:34;0.80;;;0.80;;
12892;SDS011;6514;48.606;9.222;2023-02-26T14:05:30;1.73;;;0.90;;
12892;SDS011;6514;48.606;9.222;2023-02-26T14:08:09;1.47;;;1.00;;
12892;SDS011;6514;48.606;9.222;2023-02-26T14:10:53;0.93;;;0.80;;
12892;SDS011;6514;48.606;9.222;2023-02-26T14:13:29;1.80;;;0.93;;
12892;SDS011;6514;48.606;9.222;2023-02-26T14:15:59;1.10;;;0.90;;
12892;SDS011;6514;48.606;9.222;2023-02-26T14:18:34;2.13;;;0.80;;
12892;SDS011;6514;48.606;9.222;2023-02-26T14:24:01;0.87;;;0.80;;
12892;SDS011;6514;48.606;9.222;2023-02-26T14:26:32;0.80;;;0.60;;
12892;SDS011;6514;48.606;9.222;2023-02-26T14:32:04;0.60;;;0.60;;
12892;SDS011;6514;48.606;9.222;2023-02-26T14:34:44;0.73;;;0.60;;
12892;SDS011;6514;48.606;9.222;2023-02-26T14:37:16;1.00;;;0.80;;
12892;SDS011;6514;48.606;9.222;2023-02-26T14:39:46;2.30;;;2.10;;
12892;SDS011;6514;48.606;9.222;2023-02-26T14:42:18;1.13;;;0.80;;
12892;SDS011;6514;48.606;9.222;2023-02-26T14:44:49;0.80;;;0.80;;
12892;SDS011;6514;48.606;9.222;2023-02-26T14:47:21;0.83;;;0.83;;
12892;SDS011;6514;48.606;9.222;2023-02-26T14:49:48;1.03;;;0.80;;
12892;SDS011;6514;48.606;9.222;2023-02-26T14:52:35;1.27;;;0.77;;
12892;SDS011;6514;48.606;9.222;2023-02-26T14:55:35;0.90;;;0.90;;
12892;SDS011;6514;48.606;9.222;2023-02-26T14:58:24;0.90;;;0.90;;
12892;SDS011;6514;48.606;9.222;2023-02-26T15:01:13;0.50;;;0.50;;
12892;SDS011;6514;48.606;9.222;2023-02-26T15:04:00;0.80;;;0.80;;
12892;SDS011;6514;48.606;9.222;2023-02-26T15:06:56;0.80;;;0.80;;
12892;SDS011;6514;48.606;9.222;2023-02-26T15:09:39;1.23;;;0.97;;
12892;SDS011;6514;48.606;9.222;2023-02-26T15:12:20;1.47;;;1.07;;
12892;SDS011;6514;48.606;9.222;2023-02-26T15:15:02;0.63;;;0.60;;
12892;SDS011;6514;48.606;9.222;2023-02-26T15:17:51;0.80;;;0.80;;
12892;SDS011;6514;48.606;9.222;2023-02-26T15:20:33;0.87;;;0.70;;
12892;SDS011;6514;48.606;9.222;2023-02-26T15:23:24;3.60;;;1.90;;
12892;SDS011;6514;48.606;9.222;2023-02-26T15:26:00;1.33;;;1.00;;
12892;SDS011;6514;48.606;9.222;2023-02-26T15:28:30;2.10;;;1.30;;
12892;SDS011;6514;48.606;9.222;2023-02-26T15:31:00;1.23;;;1.07;;
12892;SDS011;6514;48.606;9.222;2023-02-26T15:33:32;0.77;;;0.73;;
12892;SDS011;6514;48.606;9.222;2023-02-26T15:35:59;0.90;;;0.70;;
12892;SDS011;6514;48.606;9.222;2023-02-26T15:38:38;1.13;;;0.90;;
12892;SDS011;6514;48.606;9.222;2023-02-26T15:41:06;1.13;;;0.80;;
12892;SDS011;6514;48.606;9.222;2023-02-26T15:43:33;1.20;;;0.93;;
12892;SDS011;6514;48.606;9.222;2023-02-26T15:46:01;9.90;;;6.53;;
12892;SDS011;6514;48.606;9.222;2023-02-26T15:48:29;1.47;;;1.37;;
12892;SDS011;6514;48.606;9.222;2023-02-26T15:51:03;1.03;;;0.77;;
12892;SDS011;6514;48.606;9.222;2023-02-26T15:53:31;0.80;;;0.80;;